sensor_id;sensor_type;location;lat;lon;timestamp;temperature;humidity
51500;DHT22;39101;53.478;6.158;2023-07-09T00:01:48;21.20;99.90
51500;DHT22;39101;53.478;6.158;2023-07-09T00:04:27;21.10;99.90
51500;DHT22;39101;53.478;6.158;2023-07-09T00:06:55;21.10;99.90
51500;DHT22;39101;53.478;6.158;2023-07-09T00:09:23;21.10;99.90
51500;DHT22;39101;53.478;6.158;2023-07-09T00:11:49;21.10;99.90
51500;DHT22;39101;53.478;6.158;2023-07-09T00:14:16;21.10;99.90
51500;DHT22;39101;53.478;6.158;2023-07-09T00:16:43;21.10;99.90
51500;DHT22;39101;53.478;6.158;2023-07-09T00:19:16;21.00;99.90
51500;DHT22;39101;53.478;6.158;2023-07-09T00:21:43;21.00;99.90
51500;DHT22;39101;53.478;6.158;2023-07-09T00:24:11;21.00;99.90
51500;DHT22;39101;53.478;6.158;2023-07-09T00:26:38;21.00;99.90
51500;DHT22;39101;53.478;6.158;2023-07-09T00:29:11;21.00;99.90
51500;DHT22;39101;53.478;6.158;2023-07-09T00:31:37;20.90;99.90
51500;DHT22;39101;53.478;6.158;2023-07-09T00:34:11;21.00;99.90
51500;DHT22;39101;53.478;6.158;2023-07-09T00:36:41;20.90;99.90
51500;DHT22;39101;53.478;6.158;2023-07-09T00:39:18;20.90;99.90
51500;DHT22;39101;53.478;6.158;2023-07-09T00:41:45;20.90;99.90
51500;DHT22;39101;53.478;6.158;2023-07-09T00:49:15;20.80;99.90
51500;DHT22;39101;53.478;6.158;2023-07-09T00:51:44;20.80;99.90
51500;DHT22;39101;53.478;6.158;2023-07-09T00:54:23;20.80;99.90
51500;DHT22;39101;53.478;6.158;2023-07-09T00:56:52;20.80;99.90
51500;DHT22;39101;53.478;6.158;2023-07-09T00:59:24;20.80;99.90
51500;DHT22;39101;53.478;6.158;2023-07-09T01:01:51;20.80;99.90
51500;DHT22;39101;53.478;6.158;2023-07-09T01:04:20;20.80;99.90
51500;DHT22;39101;53.478;6.158;2023-07-09T01:06:54;20.70;99.90
51500;DHT22;39101;53.478;6.158;2023-07-09T01:09:22;20.70;99.90
51500;DHT22;39101;53.478;6.158;2023-07-09T01:11:48;20.70;99.90
51500;DHT22;39101;53.478;6.158;2023-07-09T01:14:16;20.70;99.90
51500;DHT22;39101;53.478;6.158;2023-07-09T01:16:49;20.70;99.90
51500;DHT22;39101;53.478;6.158;2023-07-09T01:19:23;20.70;99.90
51500;DHT22;39101;53.478;6.158;2023-07-09T01:21:56;20.70;99.90
51500;DHT22;39101;53.478;6.158;2023-07-09T01:27:11;20.70;99.90
51500;DHT22;39101;53.478;6.158;2023-07-09T01:29:37;20.60;99.90
51500;DHT22;39101;53.478;6.158;2023-07-09T01:32:04;20.60;99.90
51500;DHT22;39101;53.478;6.158;2023-07-09T01:34:32;20.60;99.90
51500;DHT22;39101;53.478;6.158;2023-07-09T01:36:58;20.60;99.90
51500;DHT22;39101;53.478;6.158;2023-07-09T01:39:26;20.60;99.90
51500;DHT22;39101;53.478;6.158;2023-07-09T01:41:52;20.60;99.90
51500;DHT22;39101;53.478;6.158;2023-07-09T01:44:18;20.60;99.90
51500;DHT22;39101;53.478;6.158;2023-07-09T01:46:44;20.50;99.90
51500;DHT22;39101;53.478;6.158;2023-07-09T01:49:10;20.50;99.90
51500;DHT22;39101;53.478;6.158;2023-07-09T01:51:36;20.50;99.90
51500;DHT22;39101;53.478;6.158;2023-07-09T01:54:03;20.50;99.90
51500;DHT22;39101;53.478;6.158;2023-07-09T01:56:28;20.40;99.90
51500;DHT22;39101;53.478;6.158;2023-07-09T01:58:55;20.40;99.90
51500;DHT22;39101;53.478;6.158;2023-07-09T02:01:29;20.40;99.90
51500;DHT22;39101;53.478;6.158;2023-07-09T02:03:55;20.40;99.90
51500;DHT22;39101;53.478;6.158;2023-07-09T02:06:20;20.40;99.90
51500;DHT22;39101;53.478;6.158;2023-07-09T02:08:50;20.40;99.90
51500;DHT22;39101;53.478;6.158;2023-07-09T02:11:16;20.40;99.90
51500;DHT22;39101;53.478;6.158;2023-07-09T02:13:41;20.40;99.90
51500;DHT22;39101;53.478;6.158;2023-07-09T02:16:07;20.30;99.90
51500;DHT22;39101;53.478;6.158;2023-07-09T02:18:34;20.30;99.90
51500;DHT22;39101;53.478;6.158;2023-07-09T02:21:00;20.30;99.90
51500;DHT22;39101;53.478;6.158;2023-07-09T02:23:29;20.30;99.90
51500;DHT22;39101;53.478;6.158;2023-07-09T02:25:55;20.30;99.90
51500;DHT22;39101;53.478;6.158;2023-07-09T02:28:20;20.30;99.90
51500;DHT22;39101;53.478;6.158;2023-07-09T02:30:46;20.30;99.90
51500;DHT22;39101;53.478;6.158;2023-07-09T02:33:12;20.30;99.90
51500;DHT22;39101;53.478;6.158;2023-07-09T02:35:37;20.30;99.90
51500;DHT22;39101;53.478;6.158;2023-07-09T02:38:04;20.20;99.90
51500;DHT22;39101;53.478;6.158;2023-07-09T02:40:29;20.30;99.90
51500;DHT22;39101;53.478;6.158;2023-07-09T02:42:55;20.30;99.90
51500;DHT22;39101;53.478;6.158;2023-07-09T02:45:21;20.30;99.90
51500;DHT22;39101;53.478;6.158;2023-07-09T02:47:47;20.30;99.90
51500;DHT22;39101;53.478;6.158;2023-07-09T02:50:13;20.20;99.90
51500;DHT22;39101;53.478;6.158;2023-07-09T02:52:39;20.20;99.90
51500;DHT22;39101;53.478;6.158;2023-07-09T02:55:05;20.20;99.90
51500;DHT22;39101;53.478;6.158;2023-07-09T02:57:30;20.20;99.90
51500;DHT22;39101;53.478;6.158;2023-07-09T02:59:56;20.20;99.90
51500;DHT22;39101;53.478;6.158;2023-07-09T03:02:22;20.20;99.90
51500;DHT22;39101;53.478;6.158;2023-07-09T03:04:47;20.20;99.90
51500;DHT22;39101;53.478;6.158;2023-07-09T03:07:13;20.10;99.90
51500;DHT22;39101;53.478;6.158;2023-07-09T03:09:39;20.10;99.90
51500;DHT22;39101;53.478;6.158;2023-07-09T03:12:05;20.10;99.90
51500;DHT22;39101;53.478;6.158;2023-07-09T03:14:30;20.10;99.90
51500;DHT22;39101;53.478;6.158;2023-07-09T03:16:56;20.10;99.90
51500;DHT22;39101;53.478;6.158;2023-07-09T03:19:22;20.10;99.90
51500;DHT22;39101;53.478;6.158;2023-07-09T03:21:48;20.00;99.90
51500;DHT22;39101;53.478;6.158;2023-07-09T03:24:14;19.60;99.90
51500;DHT22;39101;53.478;6.158;2023-07-09T03:26:44;20.10;99.90
51500;DHT22;39101;53.478;6.158;2023-07-09T03:29:10;20.00;99.90
51500;DHT22;39101;53.478;6.158;2023-07-09T03:31:35;20.00;99.90
51500;DHT22;39101;53.478;6.158;2023-07-09T03:34:01;20.00;99.90
51500;DHT22;39101;53.478;6.158;2023-07-09T03:36:27;20.10;99.90
51500;DHT22;39101;53.478;6.158;2023-07-09T03:38:53;20.00;99.90
51500;DHT22;39101;53.478;6.158;2023-07-09T03:41:18;20.10;99.90
51500;DHT22;39101;53.478;6.158;2023-07-09T03:43:44;20.10;99.90
51500;DHT22;39101;53.478;6.158;2023-07-09T03:46:10;20.10;99.90
51500;DHT22;39101;53.478;6.158;2023-07-09T03:48:35;20.10;99.90
51500;DHT22;39101;53.478;6.158;2023-07-09T03:51:01;20.10;99.90
51500;DHT22;39101;53.478;6.158;2023-07-09T03:53:27;20.10;99.90
51500;DHT22;39101;53.478;6.158;2023-07-09T03:55:54;20.10;99.90
51500;DHT22;39101;53.478;6.158;2023-07-09T03:58:21;20.10;99.90
51500;DHT22;39101;53.478;6.158;2023-07-09T04:00:47;20.10;99.90
51500;DHT22;39101;53.478;6.158;2023-07-09T04:03:13;20.10;99.90
51500;DHT22;39101;53.478;6.158;2023-07-09T04:05:38;20.00;99.90
51500;DHT22;39101;53.478;6.158;2023-07-09T04:08:04;20.10;99.90
51500;DHT22;39101;53.478;6.158;2023-07-09T04:10:30;20.00;99.90
51500;DHT22;39101;53.478;6.158;2023-07-09T04:12:56;20.10;99.90
51500;DHT22;39101;53.478;6.158;2023-07-09T04:15:22;20.00;99.90
51500;DHT22;39101;53.478;6.158;2023-07-09T04:17:47;20.10;99.90
51500;DHT22;39101;53.478;6.158;2023-07-09T04:20:13;20.00;99.90
51500;DHT22;39101;53.478;6.158;2023-07-09T04:22:39;20.00;99.90
51500;DHT22;39101;53.478;6.158;2023-07-09T04:25:08;20.10;99.90
51500;DHT22;39101;53.478;6.158;2023-07-09T04:27:35;20.10;99.90
51500;DHT22;39101;53.478;6.158;2023-07-09T04:30:01;20.10;99.90
51500;DHT22;39101;53.478;6.158;2023-07-09T04:32:28;20.10;99.90
51500;DHT22;39101;53.478;6.158;2023-07-09T04:34:53;20.10;99.90
51500;DHT22;39101;53.478;6.158;2023-07-09T04:37:19;20.20;99.90
51500;DHT22;39101;53.478;6.158;2023-07-09T04:39:45;20.10;99.90
51500;DHT22;39101;53.478;6.158;2023-07-09T04:42:14;20.20;99.90
51500;DHT22;39101;53.478;6.158;2023-07-09T04:44:41;20.20;99.90
51500;DHT22;39101;53.478;6.158;2023-07-09T04:47:07;20.20;99.90
51500;DHT22;39101;53.478;6.158;2023-07-09T04:49:32;20.30;99.90
51500;DHT22;39101;53.478;6.158;2023-07-09T04:51:59;20.30;99.90
51500;DHT22;39101;53.478;6.158;2023-07-09T04:54:26;20.30;99.90
51500;DHT22;39101;53.478;6.158;2023-07-09T04:56:51;20.30;99.90
51500;DHT22;39101;53.478;6.158;2023-07-09T04:59:18;20.40;99.90
51500;DHT22;39101;53.478;6.158;2023-07-09T05:01:44;20.40;99.90
51500;DHT22;39101;53.478;6.158;2023-07-09T05:04:10;20.40;99.90
51500;DHT22;39101;53.478;6.158;2023-07-09T05:06:36;20.50;99.90
51500;DHT22;39101;53.478;6.158;2023-07-09T05:09:02;20.50;99.90
51500;DHT22;39101;53.478;6.158;2023-07-09T05:11:28;20.60;99.90
51500;DHT22;39101;53.478;6.158;2023-07-09T05:13:54;20.60;99.90
51500;DHT22;39101;53.478;6.158;2023-07-09T05:16:20;20.60;99.90
51500;DHT22;39101;53.478;6.158;2023-07-09T05:18:46;20.60;99.90
51500;DHT22;39101;53.478;6.158;2023-07-09T05:21:12;20.60;99.90
51500;DHT22;39101;53.478;6.158;2023-07-09T05:23:37;20.70;99.90
51500;DHT22;39101;53.478;6.158;2023-07-09T05:26:04;20.70;99.90
51500;DHT22;39101;53.478;6.158;2023-07-09T05:28:30;20.70;99.90
51500;DHT22;39101;53.478;6.158;2023-07-09T05:30:57;20.80;99.90
51500;DHT22;39101;53.478;6.158;2023-07-09T05:33:22;20.80;99.90
51500;DHT22;39101;53.478;6.158;2023-07-09T05:35:48;20.90;99.90
51500;DHT22;39101;53.478;6.158;2023-07-09T05:38:15;20.90;99.90
51500;DHT22;39101;53.478;6.158;2023-07-09T05:40:41;20.90;99.90
51500;DHT22;39101;53.478;6.158;2023-07-09T05:43:08;21.00;99.90
51500;DHT22;39101;53.478;6.158;2023-07-09T05:45:34;21.00;99.90
51500;DHT22;39101;53.478;6.158;2023-07-09T05:48:00;21.10;99.90
51500;DHT22;39101;53.478;6.158;2023-07-09T05:50:28;21.20;99.90
51500;DHT22;39101;53.478;6.158;2023-07-09T05:52:54;21.20;99.90
51500;DHT22;39101;53.478;6.158;2023-07-09T05:55:20;21.30;99.90
51500;DHT22;39101;53.478;6.158;2023-07-09T05:57:45;21.30;99.90
51500;DHT22;39101;53.478;6.158;2023-07-09T06:00:12;21.40;99.90
51500;DHT22;39101;53.478;6.158;2023-07-09T06:02:38;21.50;99.90
51500;DHT22;39101;53.478;6.158;2023-07-09T06:05:04;21.50;99.90
51500;DHT22;39101;53.478;6.158;2023-07-09T06:07:30;21.60;99.90
51500;DHT22;39101;53.478;6.158;2023-07-09T06:09:56;21.60;99.90
51500;DHT22;39101;53.478;6.158;2023-07-09T06:12:22;21.60;99.90
51500;DHT22;39101;53.478;6.158;2023-07-09T06:14:48;21.60;99.90
51500;DHT22;39101;53.478;6.158;2023-07-09T06:17:14;21.70;99.90
51500;DHT22;39101;53.478;6.158;2023-07-09T06:19:40;21.80;99.90
51500;DHT22;39101;53.478;6.158;2023-07-09T06:22:06;21.80;99.90
51500;DHT22;39101;53.478;6.158;2023-07-09T06:24:32;21.80;99.90
51500;DHT22;39101;53.478;6.158;2023-07-09T06:26:58;21.90;99.90
51500;DHT22;39101;53.478;6.158;2023-07-09T06:29:24;22.00;99.90
51500;DHT22;39101;53.478;6.158;2023-07-09T06:31:50;22.00;99.90
51500;DHT22;39101;53.478;6.158;2023-07-09T06:34:16;22.10;99.90
51500;DHT22;39101;53.478;6.158;2023-07-09T06:36:42;22.20;99.90
51500;DHT22;39101;53.478;6.158;2023-07-09T06:39:08;22.20;99.90
51500;DHT22;39101;53.478;6.158;2023-07-09T06:41:33;22.30;99.90
51500;DHT22;39101;53.478;6.158;2023-07-09T06:44:05;22.40;99.90
51500;DHT22;39101;53.478;6.158;2023-07-09T06:46:31;22.40;99.90
51500;DHT22;39101;53.478;6.158;2023-07-09T06:48:57;22.40;99.90
51500;DHT22;39101;53.478;6.158;2023-07-09T06:51:22;22.50;99.90
51500;DHT22;39101;53.478;6.158;2023-07-09T06:53:48;22.50;99.90
51500;DHT22;39101;53.478;6.158;2023-07-09T06:56:17;22.50;99.90
51500;DHT22;39101;53.478;6.158;2023-07-09T06:58:42;22.40;99.90
51500;DHT22;39101;53.478;6.158;2023-07-09T07:01:09;22.40;99.90
51500;DHT22;39101;53.478;6.158;2023-07-09T07:03:36;22.40;99.90
51500;DHT22;39101;53.478;6.158;2023-07-09T07:06:02;22.40;99.90
51500;DHT22;39101;53.478;6.158;2023-07-09T07:08:28;22.40;99.90
51500;DHT22;39101;53.478;6.158;2023-07-09T07:10:59;22.40;99.90
51500;DHT22;39101;53.478;6.158;2023-07-09T07:13:33;22.50;99.90
51500;DHT22;39101;53.478;6.158;2023-07-09T07:16:04;22.70;99.90
51500;DHT22;39101;53.478;6.158;2023-07-09T07:18:30;22.80;99.90
51500;DHT22;39101;53.478;6.158;2023-07-09T07:20:56;22.90;99.90
51500;DHT22;39101;53.478;6.158;2023-07-09T07:23:22;23.00;99.90
51500;DHT22;39101;53.478;6.158;2023-07-09T07:25:49;23.10;99.90
51500;DHT22;39101;53.478;6.158;2023-07-09T07:28:15;23.20;99.90
51500;DHT22;39101;53.478;6.158;2023-07-09T07:30:41;23.30;99.90
51500;DHT22;39101;53.478;6.158;2023-07-09T07:33:06;23.40;99.90
51500;DHT22;39101;53.478;6.158;2023-07-09T07:35:32;23.40;99.90
51500;DHT22;39101;53.478;6.158;2023-07-09T07:37:58;23.40;99.90
51500;DHT22;39101;53.478;6.158;2023-07-09T07:40:23;23.40;99.90
51500;DHT22;39101;53.478;6.158;2023-07-09T07:42:49;23.30;99.90
51500;DHT22;39101;53.478;6.158;2023-07-09T07:45:15;23.30;99.90
51500;DHT22;39101;53.478;6.158;2023-07-09T07:47:40;23.30;99.90
51500;DHT22;39101;53.478;6.158;2023-07-09T07:50:07;23.30;99.90
51500;DHT22;39101;53.478;6.158;2023-07-09T07:52:33;23.30;99.90
51500;DHT22;39101;53.478;6.158;2023-07-09T07:55:11;23.40;99.90
51500;DHT22;39101;53.478;6.158;2023-07-09T07:57:37;23.50;99.90
51500;DHT22;39101;53.478;6.158;2023-07-09T08:00:03;23.60;99.90
51500;DHT22;39101;53.478;6.158;2023-07-09T08:02:29;23.60;99.90
51500;DHT22;39101;53.478;6.158;2023-07-09T08:04:54;23.70;99.90
51500;DHT22;39101;53.478;6.158;2023-07-09T08:07:20;23.80;99.90
51500;DHT22;39101;53.478;6.158;2023-07-09T08:09:46;23.90;99.90
51500;DHT22;39101;53.478;6.158;2023-07-09T08:12:13;23.90;99.90
51500;DHT22;39101;53.478;6.158;2023-07-09T08:14:40;24.10;99.90
51500;DHT22;39101;53.478;6.158;2023-07-09T08:17:06;24.20;99.90
51500;DHT22;39101;53.478;6.158;2023-07-09T08:19:43;24.20;99.90
51500;DHT22;39101;53.478;6.158;2023-07-09T08:22:09;24.30;99.90
51500;DHT22;39101;53.478;6.158;2023-07-09T08:24:35;24.20;99.90
51500;DHT22;39101;53.478;6.158;2023-07-09T08:27:00;24.10;99.90
51500;DHT22;39101;53.478;6.158;2023-07-09T08:29:26;24.10;99.90
51500;DHT22;39101;53.478;6.158;2023-07-09T08:31:52;24.10;99.90
51500;DHT22;39101;53.478;6.158;2023-07-09T08:34:18;24.10;99.90
51500;DHT22;39101;53.478;6.158;2023-07-09T08:36:43;24.10;99.90
51500;DHT22;39101;53.478;6.158;2023-07-09T08:39:10;24.10;99.90
51500;DHT22;39101;53.478;6.158;2023-07-09T08:41:59;24.00;99.90
51500;DHT22;39101;53.478;6.158;2023-07-09T08:52:37;24.10;99.90
51500;DHT22;39101;53.478;6.158;2023-07-09T08:55:11;24.10;99.90
51500;DHT22;39101;53.478;6.158;2023-07-09T08:57:45;24.00;99.90
51500;DHT22;39101;53.478;6.158;2023-07-09T09:02:50;24.00;99.90
51500;DHT22;39101;53.478;6.158;2023-07-09T09:05:20;24.00;99.90
51500;DHT22;39101;53.478;6.158;2023-07-09T09:07:48;24.00;99.90
51500;DHT22;39101;53.478;6.158;2023-07-09T09:10:21;24.00;99.90
51500;DHT22;39101;53.478;6.158;2023-07-09T09:12:56;24.10;99.90
51500;DHT22;39101;53.478;6.158;2023-07-09T09:15:25;24.10;99.90
51500;DHT22;39101;53.478;6.158;2023-07-09T09:17:54;24.10;99.90
51500;DHT22;39101;53.478;6.158;2023-07-09T09:20:21;24.10;99.90
51500;DHT22;39101;53.478;6.158;2023-07-09T09:22:54;24.10;99.90
51500;DHT22;39101;53.478;6.158;2023-07-09T09:25:28;24.10;99.90
51500;DHT22;39101;53.478;6.158;2023-07-09T09:27:55;24.10;99.90
51500;DHT22;39101;53.478;6.158;2023-07-09T09:30:23;24.10;99.90
51500;DHT22;39101;53.478;6.158;2023-07-09T09:35:43;24.10;99.90
51500;DHT22;39101;53.478;6.158;2023-07-09T09:38:21;24.10;99.90
51500;DHT22;39101;53.478;6.158;2023-07-09T09:40:47;24.00;99.90
51500;DHT22;39101;53.478;6.158;2023-07-09T09:43:18;24.00;99.90
51500;DHT22;39101;53.478;6.158;2023-07-09T09:45:47;24.00;99.90
51500;DHT22;39101;53.478;6.158;2023-07-09T09:48:19;24.00;99.90
51500;DHT22;39101;53.478;6.158;2023-07-09T09:50:45;24.00;99.90
51500;DHT22;39101;53.478;6.158;2023-07-09T09:53:19;24.00;99.90
51500;DHT22;39101;53.478;6.158;2023-07-09T09:55:46;24.00;99.90
51500;DHT22;39101;53.478;6.158;2023-07-09T09:58:14;24.00;99.90
51500;DHT22;39101;53.478;6.158;2023-07-09T10:00:50;24.10;99.90
51500;DHT22;39101;53.478;6.158;2023-07-09T10:03:17;24.00;99.90
51500;DHT22;39101;53.478;6.158;2023-07-09T10:08:27;23.80;99.90
51500;DHT22;39101;53.478;6.158;2023-07-09T10:11:08;23.80;99.90
51500;DHT22;39101;53.478;6.158;2023-07-09T10:13:38;23.80;99.90
51500;DHT22;39101;53.478;6.158;2023-07-09T10:16:36;23.70;99.90
51500;DHT22;39101;53.478;6.158;2023-07-09T10:19:19;23.80;99.90
51500;DHT22;39101;53.478;6.158;2023-07-09T10:22:10;23.70;99.90
51500;DHT22;39101;53.478;6.158;2023-07-09T10:24:59;23.80;99.90
51500;DHT22;39101;53.478;6.158;2023-07-09T10:33:10;23.80;99.90
51500;DHT22;39101;53.478;6.158;2023-07-09T10:36:12;23.90;99.90
51500;DHT22;39101;53.478;6.158;2023-07-09T10:38:58;23.90;99.90
51500;DHT22;39101;53.478;6.158;2023-07-09T10:41:26;23.90;99.90
51500;DHT22;39101;53.478;6.158;2023-07-09T10:44:13;23.90;99.90
51500;DHT22;39101;53.478;6.158;2023-07-09T10:46:43;23.90;99.90
51500;DHT22;39101;53.478;6.158;2023-07-09T10:49:14;23.90;99.90
51500;DHT22;39101;53.478;6.158;2023-07-09T10:51:59;23.80;99.90
51500;DHT22;39101;53.478;6.158;2023-07-09T10:54:37;23.80;99.90
51500;DHT22;39101;53.478;6.158;2023-07-09T10:59:56;24.00;99.90
51500;DHT22;39101;53.478;6.158;2023-07-09T11:02:24;24.00;99.90
51500;DHT22;39101;53.478;6.158;2023-07-09T11:04:56;24.10;99.90
51500;DHT22;39101;53.478;6.158;2023-07-09T11:07:56;24.30;99.90
51500;DHT22;39101;53.478;6.158;2023-07-09T11:10:52;24.30;99.90
51500;DHT22;39101;53.478;6.158;2023-07-09T11:13:28;24.30;99.90
51500;DHT22;39101;53.478;6.158;2023-07-09T11:15:58;24.30;99.90
51500;DHT22;39101;53.478;6.158;2023-07-09T11:18:33;24.30;99.90
51500;DHT22;39101;53.478;6.158;2023-07-09T11:21:20;24.30;99.90
51500;DHT22;39101;53.478;6.158;2023-07-09T11:23:49;24.30;99.90
51500;DHT22;39101;53.478;6.158;2023-07-09T11:26:26;24.30;99.90
51500;DHT22;39101;53.478;6.158;2023-07-09T11:29:09;24.30;99.90
51500;DHT22;39101;53.478;6.158;2023-07-09T11:31:40;24.40;99.90
51500;DHT22;39101;53.478;6.158;2023-07-09T11:36:57;24.50;99.90
51500;DHT22;39101;53.478;6.158;2023-07-09T11:42:02;24.60;99.90
51500;DHT22;39101;53.478;6.158;2023-07-09T11:44:30;24.60;99.90
51500;DHT22;39101;53.478;6.158;2023-07-09T11:50:00;24.80;99.90
51500;DHT22;39101;53.478;6.158;2023-07-09T11:52:45;24.90;99.90
51500;DHT22;39101;53.478;6.158;2023-07-09T11:58:03;24.80;99.90
51500;DHT22;39101;53.478;6.158;2023-07-09T12:00:41;24.80;99.90
51500;DHT22;39101;53.478;6.158;2023-07-09T12:03:14;24.80;99.90
51500;DHT22;39101;53.478;6.158;2023-07-09T12:05:49;24.90;99.90
51500;DHT22;39101;53.478;6.158;2023-07-09T12:08:16;24.90;99.90
51500;DHT22;39101;53.478;6.158;2023-07-09T12:10:42;24.90;99.90
51500;DHT22;39101;53.478;6.158;2023-07-09T12:13:11;24.90;99.90
51500;DHT22;39101;53.478;6.158;2023-07-09T12:15:38;24.90;99.90
51500;DHT22;39101;53.478;6.158;2023-07-09T12:18:13;24.90;99.90
51500;DHT22;39101;53.478;6.158;2023-07-09T12:20:40;25.00;99.90
51500;DHT22;39101;53.478;6.158;2023-07-09T12:23:21;25.00;99.90
51500;DHT22;39101;53.478;6.158;2023-07-09T12:25:50;25.10;99.90
51500;DHT22;39101;53.478;6.158;2023-07-09T12:28:16;25.00;99.90
51500;DHT22;39101;53.478;6.158;2023-07-09T12:30:47;25.00;99.90
51500;DHT22;39101;53.478;6.158;2023-07-09T12:33:18;25.00;99.90
51500;DHT22;39101;53.478;6.158;2023-07-09T12:35:45;24.90;99.90
51500;DHT22;39101;53.478;6.158;2023-07-09T12:38:18;25.00;99.90
51500;DHT22;39101;53.478;6.158;2023-07-09T12:40:45;25.00;99.90
51500;DHT22;39101;53.478;6.158;2023-07-09T12:43:11;25.00;99.90
51500;DHT22;39101;53.478;6.158;2023-07-09T12:45:37;25.00;99.90
51500;DHT22;39101;53.478;6.158;2023-07-09T12:48:03;25.00;99.90
51500;DHT22;39101;53.478;6.158;2023-07-09T12:50:30;25.00;99.90
51500;DHT22;39101;53.478;6.158;2023-07-09T12:53:01;25.00;99.90
51500;DHT22;39101;53.478;6.158;2023-07-09T12:55:29;25.10;99.90
51500;DHT22;39101;53.478;6.158;2023-07-09T12:58:01;25.10;99.90
51500;DHT22;39101;53.478;6.158;2023-07-09T13:00:30;25.00;99.90
51500;DHT22;39101;53.478;6.158;2023-07-09T13:02:58;24.90;99.90
51500;DHT22;39101;53.478;6.158;2023-07-09T13:05:25;24.80;99.90
51500;DHT22;39101;53.478;6.158;2023-07-09T13:07:53;24.70;99.90
51500;DHT22;39101;53.478;6.158;2023-07-09T13:10:23;24.60;99.90
51500;DHT22;39101;53.478;6.158;2023-07-09T13:12:52;24.60;99.90
51500;DHT22;39101;53.478;6.158;2023-07-09T13:18:04;24.40;99.90
51500;DHT22;39101;53.478;6.158;2023-07-09T13:20:37;24.40;99.90
51500;DHT22;39101;53.478;6.158;2023-07-09T13:23:16;24.10;99.90
51500;DHT22;39101;53.478;6.158;2023-07-09T13:25:42;24.20;99.90
51500;DHT22;39101;53.478;6.158;2023-07-09T13:28:18;23.90;99.90
51500;DHT22;39101;53.478;6.158;2023-07-09T13:30:45;23.90;99.90
51500;DHT22;39101;53.478;6.158;2023-07-09T13:33:11;23.90;99.90
51500;DHT22;39101;53.478;6.158;2023-07-09T13:35:37;23.80;99.90
51500;DHT22;39101;53.478;6.158;2023-07-09T13:38:05;23.80;99.90
51500;DHT22;39101;53.478;6.158;2023-07-09T13:40:34;23.90;99.90
51500;DHT22;39101;53.478;6.158;2023-07-09T13:43:00;24.00;99.90
51500;DHT22;39101;53.478;6.158;2023-07-09T13:45:26;24.10;99.90
51500;DHT22;39101;53.478;6.158;2023-07-09T13:47:52;24.10;99.90
51500;DHT22;39101;53.478;6.158;2023-07-09T13:50:19;24.20;99.90
51500;DHT22;39101;53.478;6.158;2023-07-09T13:52:46;24.30;99.90
51500;DHT22;39101;53.478;6.158;2023-07-09T13:55:18;24.30;99.90
51500;DHT22;39101;53.478;6.158;2023-07-09T13:57:44;24.30;99.90
51500;DHT22;39101;53.478;6.158;2023-07-09T14:00:11;24.30;99.90
51500;DHT22;39101;53.478;6.158;2023-07-09T14:02:37;24.40;99.90
51500;DHT22;39101;53.478;6.158;2023-07-09T14:05:06;24.50;99.90
51500;DHT22;39101;53.478;6.158;2023-07-09T14:07:34;24.50;99.90
51500;DHT22;39101;53.478;6.158;2023-07-09T14:10:02;24.50;99.90
51500;DHT22;39101;53.478;6.158;2023-07-09T14:12:29;24.30;99.90
51500;DHT22;39101;53.478;6.158;2023-07-09T14:15:00;24.30;99.90
51500;DHT22;39101;53.478;6.158;2023-07-09T14:17:27;24.30;99.90
51500;DHT22;39101;53.478;6.158;2023-07-09T14:19:53;24.20;99.90
51500;DHT22;39101;53.478;6.158;2023-07-09T14:22:33;24.20;99.90
51500;DHT22;39101;53.478;6.158;2023-07-09T14:24:59;24.00;99.90
51500;DHT22;39101;53.478;6.158;2023-07-09T14:27:25;23.70;99.90
51500;DHT22;39101;53.478;6.158;2023-07-09T14:29:51;23.70;99.90
51500;DHT22;39101;53.478;6.158;2023-07-09T14:32:36;23.80;99.90
51500;DHT22;39101;53.478;6.158;2023-07-09T14:35:12;23.80;99.90
51500;DHT22;39101;53.478;6.158;2023-07-09T14:37:38;23.70;99.90
51500;DHT22;39101;53.478;6.158;2023-07-09T14:40:04;23.70;99.90
51500;DHT22;39101;53.478;6.158;2023-07-09T14:42:31;23.70;99.90
51500;DHT22;39101;53.478;6.158;2023-07-09T14:44:56;23.70;99.90
51500;DHT22;39101;53.478;6.158;2023-07-09T14:47:22;23.60;99.90
51500;DHT22;39101;53.478;6.158;2023-07-09T14:49:50;23.70;99.90
51500;DHT22;39101;53.478;6.158;2023-07-09T14:52:20;23.50;99.90
51500;DHT22;39101;53.478;6.158;2023-07-09T14:54:49;23.10;99.90
51500;DHT22;39101;53.478;6.158;2023-07-09T14:57:25;22.80;99.90
51500;DHT22;39101;53.478;6.158;2023-07-09T14:59:52;22.50;99.90
51500;DHT22;39101;53.478;6.158;2023-07-09T15:02:56;22.20;99.90
51500;DHT22;39101;53.478;6.158;2023-07-09T15:05:21;22.00;99.90
51500;DHT22;39101;53.478;6.158;2023-07-09T15:07:48;21.90;99.90
51500;DHT22;39101;53.478;6.158;2023-07-09T15:10:16;21.80;99.90
51500;DHT22;39101;53.478;6.158;2023-07-09T15:12:43;21.70;99.90
51500;DHT22;39101;53.478;6.158;2023-07-09T15:15:26;21.70;99.90
51500;DHT22;39101;53.478;6.158;2023-07-09T15:17:52;21.60;99.90
51500;DHT22;39101;53.478;6.158;2023-07-09T15:20:20;21.60;99.90
51500;DHT22;39101;53.478;6.158;2023-07-09T15:22:48;21.60;99.90
51500;DHT22;39101;53.478;6.158;2023-07-09T15:25:23;21.60;99.90
51500;DHT22;39101;53.478;6.158;2023-07-09T15:27:50;21.50;99.90
51500;DHT22;39101;53.478;6.158;2023-07-09T15:30:18;21.30;99.90
51500;DHT22;39101;53.478;6.158;2023-07-09T15:32:46;21.30;99.90
51500;DHT22;39101;53.478;6.158;2023-07-09T15:35:16;21.10;99.90
51500;DHT22;39101;53.478;6.158;2023-07-09T15:37:41;20.90;99.90
51500;DHT22;39101;53.478;6.158;2023-07-09T15:40:22;20.80;99.90
51500;DHT22;39101;53.478;6.158;2023-07-09T15:42:52;20.70;99.90
51500;DHT22;39101;53.478;6.158;2023-07-09T15:45:20;20.50;99.90
51500;DHT22;39101;53.478;6.158;2023-07-09T15:47:47;20.40;99.90
51500;DHT22;39101;53.478;6.158;2023-07-09T15:50:18;20.20;99.90
51500;DHT22;39101;53.478;6.158;2023-07-09T15:52:45;20.20;99.90
51500;DHT22;39101;53.478;6.158;2023-07-09T15:55:20;20.10;99.90
51500;DHT22;39101;53.478;6.158;2023-07-09T15:57:47;20.10;99.90
51500;DHT22;39101;53.478;6.158;2023-07-09T16:00:27;20.10;99.90
51500;DHT22;39101;53.478;6.158;2023-07-09T16:02:54;20.10;99.90
51500;DHT22;39101;53.478;6.158;2023-07-09T16:05:30;19.90;99.90
51500;DHT22;39101;53.478;6.158;2023-07-09T16:07:57;19.70;99.90
51500;DHT22;39101;53.478;6.158;2023-07-09T16:10:26;19.60;99.90
51500;DHT22;39101;53.478;6.158;2023-07-09T16:12:53;19.50;99.90
51500;DHT22;39101;53.478;6.158;2023-07-09T16:15:21;19.40;99.90
51500;DHT22;39101;53.478;6.158;2023-07-09T16:17:48;19.30;99.90
51500;DHT22;39101;53.478;6.158;2023-07-09T16:20:21;19.30;99.90
51500;DHT22;39101;53.478;6.158;2023-07-09T16:22:50;19.20;99.90
51500;DHT22;39101;53.478;6.158;2023-07-09T16:25:19;19.00;99.90
51500;DHT22;39101;53.478;6.158;2023-07-09T16:27:46;19.10;99.90